sensor_id;sensor_type;location;lat;lon;timestamp;pressure;altitude;pressure_sealevel;temperature;humidity
67457;BME280;54319;52.038;4.640;2023-01-28T00:01:05;103205.47;;;2.09;82.26
67457;BME280;54319;52.038;4.640;2023-01-28T00:03:32;103212.78;;;2.07;82.09
67457;BME280;54319;52.038;4.640;2023-01-28T00:06:01;103198.00;;;2.00;82.12
67457;BME280;54319;52.038;4.640;2023-01-28T00:08:29;103211.91;;;2.07;81.76
67457;BME280;54319;52.038;4.640;2023-01-28T00:10:59;103203.06;;;2.05;81.61
67457;BME280;54319;52.038;4.640;2023-01-28T00:13:27;103183.47;;;1.88;81.18
67457;BME280;54319;52.038;4.640;2023-01-28T00:15:55;103212.59;;;2.10;80.44
67457;BME280;54319;52.038;4.640;2023-01-28T00:18:22;103211.06;;;2.06;81.53
67457;BME280;54319;52.038;4.640;2023-01-28T00:20:55;103212.03;;;2.05;80.65
67457;BME280;54319;52.038;4.640;2023-01-28T00:23:23;103203.94;;;2.05;80.91
67457;BME280;54319;52.038;4.640;2023-01-28T00:25:50;103178.09;;;1.88;81.03
67457;BME280;54319;52.038;4.640;2023-01-28T00:28:20;103211.16;;;2.05;81.26
67457;BME280;54319;52.038;4.640;2023-01-28T00:30:46;103212.09;;;2.03;80.93
67457;BME280;54319;52.038;4.640;2023-01-28T00:33:13;103206.72;;;2.03;80.94
67457;BME280;54319;52.038;4.640;2023-01-28T00:35:40;103189.16;;;1.98;81.47
67457;BME280;54319;52.038;4.640;2023-01-28T00:38:07;103209.34;;;2.05;81.19
67457;BME280;54319;52.038;4.640;2023-01-28T00:40:35;103207.41;;;2.07;81.73
67457;BME280;54319;52.038;4.640;2023-01-28T00:43:02;103213.06;;;2.02;81.37
67457;BME280;54319;52.038;4.640;2023-01-28T00:45:30;103208.66;;;2.01;81.18
67457;BME280;54319;52.038;4.640;2023-01-28T00:47:59;103215.75;;;2.02;81.32
67457;BME280;54319;52.038;4.640;2023-01-28T00:50:26;103210.50;;;2.01;81.05
67457;BME280;54319;52.038;4.640;2023-01-28T00:52:53;103203.19;;;2.03;81.18
67457;BME280;54319;52.038;4.640;2023-01-28T00:55:19;103203.06;;;2.05;81.14
67457;BME280;54319;52.038;4.640;2023-01-28T00:57:46;103206.63;;;2.05;81.18
67457;BME280;54319;52.038;4.640;2023-01-28T01:00:14;103190.13;;;1.97;81.27
67457;BME280;54319;52.038;4.640;2023-01-28T01:02:44;103208.44;;;2.05;81.47
67457;BME280;54319;52.038;4.640;2023-01-28T01:05:11;103213.75;;;2.06;81.41
67457;BME280;54319;52.038;4.640;2023-01-28T01:07:38;103203.06;;;2.05;81.59
67457;BME280;54319;52.038;4.640;2023-01-28T01:10:08;103214.72;;;2.05;81.26
67457;BME280;54319;52.038;4.640;2023-01-28T01:12:35;103210.19;;;2.06;81.54
67457;BME280;54319;52.038;4.640;2023-01-28T01:15:03;103213.00;;;2.04;81.31
67457;BME280;54319;52.038;4.640;2023-01-28T01:17:33;103216.44;;;2.06;81.10
67457;BME280;54319;52.038;4.640;2023-01-28T01:20:04;103212.09;;;2.03;80.99
67457;BME280;54319;52.038;4.640;2023-01-28T01:22:32;103213.84;;;2.05;81.36
67457;BME280;54319;52.038;4.640;2023-01-28T01:24:59;103206.84;;;2.02;80.64
67457;BME280;54319;52.038;4.640;2023-01-28T01:27:28;103195.50;;;1.97;80.93
67457;BME280;54319;52.038;4.640;2023-01-28T01:29:56;103198.28;;;1.95;81.58
67457;BME280;54319;52.038;4.640;2023-01-28T01:32:23;103195.88;;;2.05;81.68
67457;BME280;54319;52.038;4.640;2023-01-28T01:34:50;103209.34;;;2.05;81.61
67457;BME280;54319;52.038;4.640;2023-01-28T01:37:19;103191.06;;;1.96;81.38
67457;BME280;54319;52.038;4.640;2023-01-28T01:39:46;103208.38;;;2.06;81.54
67457;BME280;54319;52.038;4.640;2023-01-28T01:42:14;103175.31;;;1.90;80.86
67457;BME280;54319;52.038;4.640;2023-01-28T01:45:03;103190.31;;;1.94;80.97
67457;BME280;54319;52.038;4.640;2023-01-28T01:47:36;103207.59;;;2.04;81.02
67457;BME280;54319;52.038;4.640;2023-01-28T01:50:11;103199.59;;;2.02;81.37
67457;BME280;54319;52.038;4.640;2023-01-28T01:52:44;103207.69;;;2.02;81.91
67457;BME280;54319;52.038;4.640;2023-01-28T01:55:13;103212.09;;;2.03;81.50
67457;BME280;54319;52.038;4.640;2023-01-28T01:57:43;103199.72;;;2.01;81.46
67457;BME280;54319;52.038;4.640;2023-01-28T02:00:12;103195.50;;;1.97;81.39
67457;BME280;54319;52.038;4.640;2023-01-28T02:02:42;103196.84;;;1.90;81.42
67457;BME280;54319;52.038;4.640;2023-01-28T02:05:12;103202.41;;;2.01;81.54
67457;BME280;54319;52.038;4.640;2023-01-28T02:07:40;103200.56;;;2.01;81.77
67457;BME280;54319;52.038;4.640;2023-01-28T02:10:10;103194.34;;;2.01;81.51
67457;BME280;54319;52.038;4.640;2023-01-28T02:12:42;103207.81;;;2.01;81.16
67457;BME280;54319;52.038;4.640;2023-01-28T02:15:14;103205.09;;;2.01;81.71
67457;BME280;54319;52.038;4.640;2023-01-28T02:17:43;103183.41;;;1.90;81.72
67457;BME280;54319;52.038;4.640;2023-01-28T02:20:12;103205.19;;;1.99;82.08
67457;BME280;54319;52.038;4.640;2023-01-28T02:23:05;103209.72;;;1.99;82.19
67457;BME280;54319;52.038;4.640;2023-01-28T02:26:06;103229.53;;;1.98;82.44
67457;BME280;54319;52.038;4.640;2023-01-28T02:28:40;103217.88;;;1.97;82.50
67457;BME280;54319;52.038;4.640;2023-01-28T02:31:14;103214.53;;;1.94;82.48
67457;BME280;54319;52.038;4.640;2023-01-28T02:33:48;103221.47;;;1.98;82.80
67457;BME280;54319;52.038;4.640;2023-01-28T02:36:23;103234.16;;;1.96;82.68
67457;BME280;54319;52.038;4.640;2023-01-28T02:38:54;103235.88;;;1.97;83.12
67457;BME280;54319;52.038;4.640;2023-01-28T02:41:30;103222.81;;;1.91;83.15
67457;BME280;54319;52.038;4.640;2023-01-28T02:44:00;103226.91;;;1.96;83.28
67457;BME280;54319;52.038;4.640;2023-01-28T02:46:35;103199.72;;;1.86;83.91
67457;BME280;54319;52.038;4.640;2023-01-28T02:49:24;103215.31;;;1.96;83.09
67457;BME280;54319;52.038;4.640;2023-01-28T02:52:14;103213.56;;;1.95;82.59
67457;BME280;54319;52.038;4.640;2023-01-28T02:54:51;103212.69;;;1.94;82.39
67457;BME280;54319;52.038;4.640;2023-01-28T02:57:31;103219.03;;;1.93;81.36
67457;BME280;54319;52.038;4.640;2023-01-28T03:00:09;103228.78;;;1.96;80.58
67457;BME280;54319;52.038;4.640;2023-01-28T03:02:43;103226.28;;;1.93;81.04
67457;BME280;54319;52.038;4.640;2023-01-28T03:05:16;103213.94;;;1.88;81.00
67457;BME280;54319;52.038;4.640;2023-01-28T03:07:47;103221.72;;;1.93;81.04
67457;BME280;54319;52.038;4.640;2023-01-28T03:10:17;103222.81;;;1.91;80.68
67457;BME280;54319;52.038;4.640;2023-01-28T03:12:48;103229.03;;;1.91;79.84
67457;BME280;54319;52.038;4.640;2023-01-28T03:15:38;103228.97;;;1.93;79.35
67457;BME280;54319;52.038;4.640;2023-01-28T03:18:28;103235.13;;;1.95;78.09
67457;BME280;54319;52.038;4.640;2023-01-28T03:21:18;103203.19;;;1.74;77.95
67457;BME280;54319;52.038;4.640;2023-01-28T03:24:08;103218.66;;;1.85;78.29
67457;BME280;54319;52.038;4.640;2023-01-28T03:26:57;103222.97;;;1.87;78.65
67457;BME280;54319;52.038;4.640;2023-01-28T03:29:46;103217.91;;;1.83;79.50
67457;BME280;54319;52.038;4.640;2023-01-28T03:32:34;103217.97;;;1.81;79.41
67457;BME280;54319;52.038;4.640;2023-01-28T03:35:20;103155.41;;;1.49;79.12
67457;BME280;54319;52.038;4.640;2023-01-28T03:38:07;103204.81;;;1.77;79.49
67457;BME280;54319;52.038;4.640;2023-01-28T03:40:49;103221.44;;;1.83;79.50
67457;BME280;54319;52.038;4.640;2023-01-28T03:43:17;103211.94;;;1.78;79.29
67457;BME280;54319;52.038;4.640;2023-01-28T03:45:44;103223.16;;;1.84;79.20
67457;BME280;54319;52.038;4.640;2023-01-28T03:48:17;103215.09;;;1.84;79.49
67457;BME280;54319;52.038;4.640;2023-01-28T03:50:43;103218.75;;;1.83;79.56
67457;BME280;54319;52.038;4.640;2023-01-28T03:53:10;103219.63;;;1.84;79.26
67457;BME280;54319;52.038;4.640;2023-01-28T03:55:38;103221.44;;;1.83;79.69
67457;BME280;54319;52.038;4.640;2023-01-28T03:58:05;103215.59;;;1.77;79.52
67457;BME280;54319;52.038;4.640;2023-01-28T04:00:31;103235.84;;;1.82;78.98
67457;BME280;54319;52.038;4.640;2023-01-28T04:03:06;103243.34;;;1.77;78.20
67457;BME280;54319;52.038;4.640;2023-01-28T04:05:41;103235.09;;;1.66;78.18
67457;BME280;54319;52.038;4.640;2023-01-28T04:08:10;103254.03;;;1.79;78.23
67457;BME280;54319;52.038;4.640;2023-01-28T04:10:37;103252.31;;;1.78;77.85
67457;BME280;54319;52.038;4.640;2023-01-28T04:13:04;103256.03;;;1.75;77.77
67457;BME280;54319;52.038;4.640;2023-01-28T04:15:31;103248.94;;;1.74;77.93
67457;BME280;54319;52.038;4.640;2023-01-28T04:18:00;103245.28;;;1.75;77.79
67457;BME280;54319;52.038;4.640;2023-01-28T04:20:27;103228.94;;;1.64;77.87
67457;BME280;54319;52.038;4.640;2023-01-28T04:22:55;103263.72;;;1.81;77.87
67457;BME280;54319;52.038;4.640;2023-01-28T04:25:22;103244.50;;;1.58;78.21
67457;BME280;54319;52.038;4.640;2023-01-28T04:27:49;103268.53;;;1.76;78.33
67457;BME280;54319;52.038;4.640;2023-01-28T04:30:16;103261.22;;;1.78;78.25
67457;BME280;54319;52.038;4.640;2023-01-28T04:32:45;103256.94;;;1.76;78.12
67457;BME280;54319;52.038;4.640;2023-01-28T04:35:12;103256.03;;;1.75;78.56
67457;BME280;54319;52.038;4.640;2023-01-28T04:37:40;103265.84;;;1.76;78.82
67457;BME280;54319;52.038;4.640;2023-01-28T04:40:10;103220.56;;;1.54;78.72
67457;BME280;54319;52.038;4.640;2023-01-28T04:42:37;103242.28;;;1.65;78.52
67457;BME280;54319;52.038;4.640;2023-01-28T04:45:05;103242.00;;;1.70;78.50
67457;BME280;54319;52.038;4.640;2023-01-28T04:47:32;103244.44;;;1.75;78.25
67457;BME280;54319;52.038;4.640;2023-01-28T04:49:59;103245.47;;;1.72;78.01
67457;BME280;54319;52.038;4.640;2023-01-28T04:52:26;103237.47;;;1.70;78.29
67457;BME280;54319;52.038;4.640;2023-01-28T04:54:53;103228.63;;;1.68;78.09
67457;BME280;54319;52.038;4.640;2023-01-28T04:57:22;103224.31;;;1.66;78.31
67457;BME280;54319;52.038;4.640;2023-01-28T04:59:48;103236.63;;;1.70;78.42
67457;BME280;54319;52.038;4.640;2023-01-28T05:02:15;103226.25;;;1.64;78.83
67457;BME280;54319;52.038;4.640;2023-01-28T05:04:43;103242.84;;;1.70;78.14
67457;BME280;54319;52.038;4.640;2023-01-28T05:07:10;103210.25;;;1.46;78.07
67457;BME280;54319;52.038;4.640;2023-01-28T05:09:37;103251.72;;;1.72;78.92
67457;BME280;54319;52.038;4.640;2023-01-28T05:12:04;103256.22;;;1.72;79.41
67457;BME280;54319;52.038;4.640;2023-01-28T05:14:33;103255.38;;;1.71;79.01
67457;BME280;54319;52.038;4.640;2023-01-28T05:16:59;103254.50;;;1.71;78.83
67457;BME280;54319;52.038;4.640;2023-01-28T05:19:26;103249.13;;;1.71;78.99
67457;BME280;54319;52.038;4.640;2023-01-28T05:21:53;103246.50;;;1.69;79.87
67457;BME280;54319;52.038;4.640;2023-01-28T05:24:20;103245.94;;;1.64;79.56
67457;BME280;54319;52.038;4.640;2023-01-28T05:26:47;103252.78;;;1.70;79.76
67457;BME280;54319;52.038;4.640;2023-01-28T05:29:13;103252.69;;;1.71;79.74
67457;BME280;54319;52.038;4.640;2023-01-28T05:31:42;103243.94;;;1.68;79.24
67457;BME280;54319;52.038;4.640;2023-01-28T05:34:09;103241.63;;;1.62;78.44
67457;BME280;54319;52.038;4.640;2023-01-28T05:36:36;103244.00;;;1.66;79.06
67457;BME280;54319;52.038;4.640;2023-01-28T05:39:02;103244.19;;;1.63;78.38
67457;BME280;54319;52.038;4.640;2023-01-28T05:41:30;103231.03;;;1.58;78.62
67457;BME280;54319;52.038;4.640;2023-01-28T05:43:57;103235.09;;;1.66;78.58
67457;BME280;54319;52.038;4.640;2023-01-28T05:46:25;103239.50;;;1.67;78.18
67457;BME280;54319;52.038;4.640;2023-01-28T05:48:53;103249.56;;;1.63;78.09
67457;BME280;54319;52.038;4.640;2023-01-28T05:51:20;103249.50;;;1.65;77.75
67457;BME280;54319;52.038;4.640;2023-01-28T05:53:47;103244.31;;;1.62;76.98
67457;BME280;54319;52.038;4.640;2023-01-28T05:56:14;103239.78;;;1.62;77.47
67457;BME280;54319;52.038;4.640;2023-01-28T05:58:41;103229.78;;;1.64;78.10
67457;BME280;54319;52.038;4.640;2023-01-28T06:01:08;103249.50;;;1.65;78.25
67457;BME280;54319;52.038;4.640;2023-01-28T06:03:35;103246.81;;;1.65;78.04
67457;BME280;54319;52.038;4.640;2023-01-28T06:06:03;103232.84;;;1.58;77.91
67457;BME280;54319;52.038;4.640;2023-01-28T06:08:30;103242.38;;;1.64;78.32
67457;BME280;54319;52.038;4.640;2023-01-28T06:10:56;103242.38;;;1.64;78.55
67457;BME280;54319;52.038;4.640;2023-01-28T06:13:23;103246.03;;;1.63;78.47
67457;BME280;54319;52.038;4.640;2023-01-28T06:15:50;103209.09;;;1.36;78.23
67457;BME280;54319;52.038;4.640;2023-01-28T06:18:17;103225.16;;;1.52;77.89
67457;BME280;54319;52.038;4.640;2023-01-28T06:20:43;103248.63;;;1.64;78.83
67457;BME280;54319;52.038;4.640;2023-01-28T06:23:12;103253.16;;;1.64;78.55
67457;BME280;54319;52.038;4.640;2023-01-28T06:25:38;103252.38;;;1.62;78.05
67457;BME280;54319;52.038;4.640;2023-01-28T06:28:06;103260.25;;;1.65;77.72
67457;BME280;54319;52.038;4.640;2023-01-28T06:30:33;103270.06;;;1.66;78.04
67457;BME280;54319;52.038;4.640;2023-01-28T06:33:00;103271.28;;;1.60;77.76
67457;BME280;54319;52.038;4.640;2023-01-28T06:35:27;103256.56;;;1.51;77.61
67457;BME280;54319;52.038;4.640;2023-01-28T06:37:54;103269.47;;;1.61;76.74
67457;BME280;54319;52.038;4.640;2023-01-28T06:40:22;103262.38;;;1.59;77.16
67457;BME280;54319;52.038;4.640;2023-01-28T06:42:50;103262.19;;;1.63;76.65
67457;BME280;54319;52.038;4.640;2023-01-28T06:45:18;103265.84;;;1.62;76.86
67457;BME280;54319;52.038;4.640;2023-01-28T06:47:45;103270.34;;;1.61;77.82
67457;BME280;54319;52.038;4.640;2023-01-28T06:50:12;103257.19;;;1.56;78.15
67457;BME280;54319;52.038;4.640;2023-01-28T06:52:39;103274.88;;;1.61;78.29
67457;BME280;54319;52.038;4.640;2023-01-28T06:55:06;103282.06;;;1.60;78.29
67457;BME280;54319;52.038;4.640;2023-01-28T06:57:36;103271.41;;;1.58;77.93
67457;BME280;54319;52.038;4.640;2023-01-28T07:00:03;103270.44;;;1.59;78.06
67457;BME280;54319;52.038;4.640;2023-01-28T07:02:32;103273.13;;;1.59;77.56
67457;BME280;54319;52.038;4.640;2023-01-28T07:04:59;103269.47;;;1.61;77.65
67457;BME280;54319;52.038;4.640;2023-01-28T07:07:27;103255.72;;;1.51;77.31
67457;BME280;54319;52.038;4.640;2023-01-28T07:09:53;103274.94;;;1.59;77.04
67457;BME280;54319;52.038;4.640;2023-01-28T07:12:20;103272.38;;;1.57;77.08
67457;BME280;54319;52.038;4.640;2023-01-28T07:14:48;103266.88;;;1.59;77.56
67457;BME280;54319;52.038;4.640;2023-01-28T07:17:15;103248.03;;;1.44;77.78
67457;BME280;54319;52.038;4.640;2023-01-28T07:19:42;103254.94;;;1.49;77.54
67457;BME280;54319;52.038;4.640;2023-01-28T07:22:10;103266.75;;;1.46;77.58
67457;BME280;54319;52.038;4.640;2023-01-28T07:24:36;103271.34;;;1.44;77.62
67457;BME280;54319;52.038;4.640;2023-01-28T07:27:04;103269.91;;;1.38;77.87
67457;BME280;54319;52.038;4.640;2023-01-28T07:29:30;103270.75;;;1.39;78.50
67457;BME280;54319;52.038;4.640;2023-01-28T07:31:59;103270.56;;;1.42;78.86
67457;BME280;54319;52.038;4.640;2023-01-28T07:34:26;103281.44;;;1.40;79.06
67457;BME280;54319;52.038;4.640;2023-01-28T07:36:53;103277.88;;;1.40;79.09
67457;BME280;54319;52.038;4.640;2023-01-28T07:39:21;103278.75;;;1.40;78.93
67457;BME280;54319;52.038;4.640;2023-01-28T07:41:48;103275.19;;;1.40;79.00
67457;BME280;54319;52.038;4.640;2023-01-28T07:44:15;103247.84;;;1.17;79.04
67457;BME280;54319;52.038;4.640;2023-01-28T07:46:42;103280.75;;;1.37;79.23
67457;BME280;54319;52.038;4.640;2023-01-28T07:49:10;103281.81;;;1.34;79.20
67457;BME280;54319;52.038;4.640;2023-01-28T07:51:38;103285.53;;;1.32;79.18
67457;BME280;54319;52.038;4.640;2023-01-28T07:54:04;103290.91;;;1.32;79.98
67457;BME280;54319;52.038;4.640;2023-01-28T07:56:31;103293.69;;;1.30;79.64
67457;BME280;54319;52.038;4.640;2023-01-28T07:58:58;103291.09;;;1.28;79.88
67457;BME280;54319;52.038;4.640;2023-01-28T08:01:25;103289.38;;;1.27;79.54
67457;BME280;54319;52.038;4.640;2023-01-28T08:03:52;103290.31;;;1.26;79.69
67457;BME280;54319;52.038;4.640;2023-01-28T08:06:21;103294.75;;;1.27;79.58
67457;BME280;54319;52.038;4.640;2023-01-28T08:08:47;103299.94;;;1.30;79.52
67457;BME280;54319;52.038;4.640;2023-01-28T08:11:14;103294.38;;;1.34;79.42
67457;BME280;54319;52.038;4.640;2023-01-28T08:13:41;103301.59;;;1.33;79.38
67457;BME280;54319;52.038;4.640;2023-01-28T08:16:08;103309.19;;;1.41;78.94
67457;BME280;54319;52.038;4.640;2023-01-28T08:18:34;103308.06;;;1.45;79.47
67457;BME280;54319;52.038;4.640;2023-01-28T08:21:02;103300.69;;;1.49;79.02
67457;BME280;54319;52.038;4.640;2023-01-28T08:23:30;103304.91;;;1.53;79.29
67457;BME280;54319;52.038;4.640;2023-01-28T08:25:59;103257.19;;;1.26;79.33
67457;BME280;54319;52.038;4.640;2023-01-28T08:28:26;103309.25;;;1.55;78.36
67457;BME280;54319;52.038;4.640;2023-01-28T08:30:53;103296.16;;;1.49;78.19
67457;BME280;54319;52.038;4.640;2023-01-28T08:33:20;103318.28;;;1.54;77.47
67457;BME280;54319;52.038;4.640;2023-01-28T08:35:48;103322.09;;;1.50;77.96
67457;BME280;54319;52.038;4.640;2023-01-28T08:38:15;103327.84;;;1.44;78.00
67457;BME280;54319;52.038;4.640;2023-01-28T08:40:45;103330.63;;;1.42;78.15
67457;BME280;54319;52.038;4.640;2023-01-28T08:43:14;103323.00;;;1.35;78.06
67457;BME280;54319;52.038;4.640;2023-01-28T08:45:41;103329.41;;;1.32;78.20
67457;BME280;54319;52.038;4.640;2023-01-28T08:48:11;103286.00;;;1.08;78.37
67457;BME280;54319;52.038;4.640;2023-01-28T08:50:40;103323.44;;;1.27;78.40
67457;BME280;54319;52.038;4.640;2023-01-28T08:53:09;103336.47;;;1.35;78.69
67457;BME280;54319;52.038;4.640;2023-01-28T08:55:37;103333.22;;;1.44;78.40
67457;BME280;54319;52.038;4.640;2023-01-28T08:58:06;103314.53;;;1.26;78.18
67457;BME280;54319;52.038;4.640;2023-01-28T09:00:34;103351.53;;;1.53;78.06
67457;BME280;54319;52.038;4.640;2023-01-28T09:03:01;103341.94;;;1.64;78.19
67457;BME280;54319;52.038;4.640;2023-01-28T09:05:29;103335.94;;;1.75;77.76
67457;BME280;54319;52.038;4.640;2023-01-28T09:08:00;103309.84;;;1.61;76.58
67457;BME280;54319;52.038;4.640;2023-01-28T09:10:27;103343.94;;;1.91;76.30
67457;BME280;54319;52.038;4.640;2023-01-28T09:12:54;103356.94;;;1.98;76.58
67457;BME280;54319;52.038;4.640;2023-01-28T09:15:22;103357.44;;;2.05;75.33
67457;BME280;54319;52.038;4.640;2023-01-28T09:17:49;103356.09;;;2.12;74.38
67457;BME280;54319;52.038;4.640;2023-01-28T09:20:16;103370.50;;;2.26;73.74
67457;BME280;54319;52.038;4.640;2023-01-28T09:22:43;103354.47;;;2.24;72.96
67457;BME280;54319;52.038;4.640;2023-01-28T09:25:10;103375.63;;;2.30;72.63
67457;BME280;54319;52.038;4.640;2023-01-28T09:27:36;103383.53;;;2.34;72.28
67457;BME280;54319;52.038;4.640;2023-01-28T09:30:04;103396.13;;;2.33;72.46
67457;BME280;54319;52.038;4.640;2023-01-28T09:32:34;103393.72;;;2.43;72.24
67457;BME280;54319;52.038;4.640;2023-01-28T09:35:01;103378.81;;;2.52;72.55
67457;BME280;54319;52.038;4.640;2023-01-28T09:37:28;103388.81;;;2.64;71.94
67457;BME280;54319;52.038;4.640;2023-01-28T09:39:55;103392.56;;;2.76;72.12
67457;BME280;54319;52.038;4.640;2023-01-28T09:42:44;103377.72;;;2.83;70.79
67457;BME280;54319;52.038;4.640;2023-01-28T09:45:20;103383.44;;;2.79;70.18
67457;BME280;54319;52.038;4.640;2023-01-28T09:47:52;103375.81;;;2.85;70.69
67457;BME280;54319;52.038;4.640;2023-01-28T09:50:25;103381.22;;;2.85;70.56
67457;BME280;54319;52.038;4.640;2023-01-28T09:52:54;103381.25;;;2.98;69.03
67457;BME280;54319;52.038;4.640;2023-01-28T09:55:30;103389.00;;;2.90;70.97
67457;BME280;54319;52.038;4.640;2023-01-28T09:57:58;103380.78;;;3.06;70.22
67457;BME280;54319;52.038;4.640;2023-01-28T10:00:29;103373.69;;;2.91;70.47
67457;BME280;54319;52.038;4.640;2023-01-28T10:03:19;103389.16;;;3.16;70.30
67457;BME280;54319;52.038;4.640;2023-01-28T10:05:53;103394.13;;;3.22;68.33
67457;BME280;54319;52.038;4.640;2023-01-28T10:08:40;103395.88;;;3.23;70.20
67457;BME280;54319;52.038;4.640;2023-01-28T10:11:22;103406.66;;;3.23;70.53
67457;BME280;54319;52.038;4.640;2023-01-28T10:14:00;103362.97;;;3.03;70.26
67457;BME280;54319;52.038;4.640;2023-01-28T10:16:33;103405.47;;;3.27;70.15
67457;BME280;54319;52.038;4.640;2023-01-28T10:19:06;103381.19;;;3.27;68.93
67457;BME280;54319;52.038;4.640;2023-01-28T10:21:41;103399.38;;;3.66;68.60
67457;BME280;54319;52.038;4.640;2023-01-28T10:24:16;103381.78;;;3.60;67.79
67457;BME280;54319;52.038;4.640;2023-01-28T10:26:44;103379.38;;;3.55;68.47
67457;BME280;54319;52.038;4.640;2023-01-28T10:29:14;103387.59;;;3.67;68.26
67457;BME280;54319;52.038;4.640;2023-01-28T10:31:50;103374.22;;;3.65;67.88
67457;BME280;54319;52.038;4.640;2023-01-28T10:34:19;103377.25;;;3.73;69.54
67457;BME280;54319;52.038;4.640;2023-01-28T10:36:47;103383.75;;;3.84;69.59
67457;BME280;54319;52.038;4.640;2023-01-28T10:39:16;103372.09;;;3.83;69.41
67457;BME280;54319;52.038;4.640;2023-01-28T10:41:44;103380.34;;;3.95;69.18
67457;BME280;54319;52.038;4.640;2023-01-28T10:44:13;103378.50;;;4.08;66.00
67457;BME280;54319;52.038;4.640;2023-01-28T10:46:44;103372.03;;;4.11;65.03
67457;BME280;54319;52.038;4.640;2023-01-28T10:49:15;103372.44;;;3.91;67.31
67457;BME280;54319;52.038;4.640;2023-01-28T10:51:46;103368.66;;;4.07;66.94
67457;BME280;54319;52.038;4.640;2023-01-28T10:54:21;103336.22;;;3.94;66.37
67457;BME280;54319;52.038;4.640;2023-01-28T10:56:52;103363.38;;;4.05;66.20
67457;BME280;54319;52.038;4.640;2023-01-28T10:59:21;103350.31;;;3.99;66.21
67457;BME280;54319;52.038;4.640;2023-01-28T11:01:51;103339.16;;;4.04;66.46
67457;BME280;54319;52.038;4.640;2023-01-28T11:04:22;103335.28;;;4.08;65.48
67457;BME280;54319;52.038;4.640;2023-01-28T11:06:56;103320.47;;;4.27;66.26
67457;BME280;54319;52.038;4.640;2023-01-28T11:09:25;103309.88;;;4.37;65.66
67457;BME280;54319;52.038;4.640;2023-01-28T11:11:53;103303.06;;;4.31;64.60
67457;BME280;54319;52.038;4.640;2023-01-28T11:14:36;103299.63;;;4.29;64.99
67457;BME280;54319;52.038;4.640;2023-01-28T11:17:03;103306.09;;;4.26;64.64
67457;BME280;54319;52.038;4.640;2023-01-28T11:19:33;103306.75;;;4.30;63.81
67457;BME280;54319;52.038;4.640;2023-01-28T11:22:02;103283.50;;;4.14;64.53
67457;BME280;54319;52.038;4.640;2023-01-28T11:24:30;103261.81;;;4.03;65.16
67457;BME280;54319;52.038;4.640;2023-01-28T11:27:09;103282.22;;;4.20;65.44
67457;BME280;54319;52.038;4.640;2023-01-28T11:29:39;103272.91;;;4.37;64.96
67457;BME280;54319;52.038;4.640;2023-01-28T11:32:16;103260.16;;;4.13;65.45
67457;BME280;54319;52.038;4.640;2023-01-28T11:34:48;103258.72;;;4.33;66.13
67457;BME280;54319;52.038;4.640;2023-01-28T11:37:20;103257.09;;;4.57;66.13
67457;BME280;54319;52.038;4.640;2023-01-28T11:39:48;103255.47;;;4.41;65.58
67457;BME280;54319;52.038;4.640;2023-01-28T11:42:17;103251.72;;;4.31;66.33
67457;BME280;54319;52.038;4.640;2023-01-28T11:44:44;103261.19;;;4.49;65.75
67457;BME280;54319;52.038;4.640;2023-01-28T11:47:18;103263.25;;;4.59;65.99
67457;BME280;54319;52.038;4.640;2023-01-28T11:50:01;103260.78;;;4.43;65.69
67457;BME280;54319;52.038;4.640;2023-01-28T11:52:40;103270.50;;;4.45;66.38
67457;BME280;54319;52.038;4.640;2023-01-28T11:55:24;103275.06;;;4.32;67.56
67457;BME280;54319;52.038;4.640;2023-01-28T11:58:00;103285.44;;;4.38;66.32
67457;BME280;54319;52.038;4.640;2023-01-28T12:00:37;103275.34;;;4.53;65.94
67457;BME280;54319;52.038;4.640;2023-01-28T12:03:22;103242.66;;;4.32;65.74
67457;BME280;54319;52.038;4.640;2023-01-28T12:05:54;103272.91;;;4.37;66.53
67457;BME280;54319;52.038;4.640;2023-01-28T12:08:25;103279.88;;;4.53;66.17
67457;BME280;54319;52.038;4.640;2023-01-28T12:11:22;103293.94;;;4.58;66.34
67457;BME280;54319;52.038;4.640;2023-01-28T12:14:18;103303.81;;;4.33;65.33
67457;BME280;54319;52.038;4.640;2023-01-28T12:16:57;103294.44;;;4.26;66.44
67457;BME280;54319;52.038;4.640;2023-01-28T12:19:48;103304.38;;;4.25;65.89
67457;BME280;54319;52.038;4.640;2023-01-28T12:22:29;103098.56;;;3.05;65.76
67457;BME280;54319;52.038;4.640;2023-01-28T12:25:12;103322.97;;;4.30;65.97
67457;BME280;54319;52.038;4.640;2023-01-28T12:27:50;103323.50;;;4.35;66.13
67457;BME280;54319;52.038;4.640;2023-01-28T12:30:33;103315.06;;;4.40;66.93
67457;BME280;54319;52.038;4.640;2023-01-28T12:33:26;103308.13;;;4.48;67.17
67457;BME280;54319;52.038;4.640;2023-01-28T12:36:00;103286.94;;;4.42;66.64
67457;BME280;54319;52.038;4.640;2023-01-28T12:38:38;103287.38;;;4.49;66.96
67457;BME280;54319;52.038;4.640;2023-01-28T12:41:10;103289.09;;;4.50;65.88
67457;BME280;54319;52.038;4.640;2023-01-28T12:43:45;103212.22;;;4.04;66.53
67457;BME280;54319;52.038;4.640;2023-01-28T12:46:28;103257.22;;;4.29;66.43
67457;BME280;54319;52.038;4.640;2023-01-28T12:49:00;103252.97;;;4.51;66.93
67457;BME280;54319;52.038;4.640;2023-01-28T12:51:34;103251.13;;;4.52;66.18
67457;BME280;54319;52.038;4.640;2023-01-28T12:54:11;103234.47;;;4.58;66.59
67457;BME280;54319;52.038;4.640;2023-01-28T12:56:48;103220.78;;;4.72;65.47
67457;BME280;54319;52.038;4.640;2023-01-28T12:59:20;103201.84;;;4.72;64.88
67457;BME280;54319;52.038;4.640;2023-01-28T13:01:52;103208.56;;;4.67;64.26
67457;BME280;54319;52.038;4.640;2023-01-28T13:04:30;103196.84;;;4.79;63.52
67457;BME280;54319;52.038;4.640;2023-01-28T13:07:01;103199.19;;;4.84;64.22
67457;BME280;54319;52.038;4.640;2023-01-28T13:09:33;103206.09;;;4.88;64.81
67457;BME280;54319;52.038;4.640;2023-01-28T13:12:03;103213.00;;;4.92;64.65
67457;BME280;54319;52.038;4.640;2023-01-28T13:14:32;103223.59;;;4.95;65.57
67457;BME280;54319;52.038;4.640;2023-01-28T13:17:09;103225.03;;;4.88;64.89
67457;BME280;54319;52.038;4.640;2023-01-28T13:19:38;103229.69;;;4.86;64.78